Date,TemperatureHighF,TemperatureAvgF,TemperatureLowF,DewpointHighF,DewpointAvgF,DewpointLowF,HumidityHigh,HumidityAvg,HumidityLow,PressureMaxIn,PressureMinIn,WindSpeedMaxMPH,WindSpeedAvgMPH,GustSpeedMaxMPH,PrecipitationSumIn
2013-12-1,53,49,45,52,48,44,97,96,93,30.28,29.99,18,6,18,0.08
2013-12-2,53,51,50,51,49,47,98,93,88,29.99,29.74,18,8,18,0.04
2013-12-3,56,51,48,51,46,40,95,83,59,30.02,29.81,15,4,15,0.00
2013-12-4,65,60,55,63,58,51,98,95,87,30.10,30.00,9,0,9,0.15
2013-12-5,71,63,54,68,62,53,99,96,90,30.16,30.08,13,2,13,0.01
2013-12-6,72,68,65,69,66,64,98,94,88,30.13,30.04,24,8,24,0.00
2013-12-7,68,51,48,66,48,45,98,92,86,30.37,30.05,30,18,30,0.25
2013-12-8,52,49,48,51,48,45,100,95,86,30.35,30.21,30,15,30,0.22
2013-12-9,67,55,47,65,54,46,100,97,94,30.21,30.05,16,3,16,0.00
2013-12-10,66,54,44,65,53,39,100,95,81,30.28,29.79,39,10,49,0.16
2013-12-11,48,44,42,39,34,28,81,67,52,30.44,30.26,24,7,24,0.00
2013-12-12,48,44,38,38,34,31,79,71,61,30.36,30.21,23,12,26,0.00
2013-12-13,50,44,36,41,31,25,79,59,42,30.40,30.27,18,5,18,0.00
2013-12-14,68,56,42,66,50,37,97,83,71,30.32,29.73,42,8,42,1.25
2013-12-15,63,55,48,63,52,38,100,91,66,30.02,29.65,27,8,27,0.40
2013-12-16,51,46,44,41,38,35,80,72,63,30.15,30.02,26,12,26,0.00
2013-12-17,61,58,52,52,49,43,84,74,66,30.13,29.90,31,10,31,0.00
2013-12-18,56,47,41,49,34,29,77,61,50,30.29,29.93,25,9,25,0.00
2013-12-19,59,50,37,51,42,31,90,75,59,30.33,30.25,18,3,18,0.00
2013-12-20,70,60,49,62,56,47,96,88,73,30.27,30.15,14,2,14,0.00
2013-12-21,73,67,63,68,64,60,96,90,78,30.19,30.10,15,3,15,0.00
2013-12-22,68,68,68,67,66,66,95,95,94,30.11,30.11,14,4,14,0.00
2013-12-23,73,69,54,69,66,53,96,92,89,30.12,29.99,24,8,24,0.08
2013-12-24,54,47,43,53,42,32,96,85,61,30.35,30.00,27,18,30,0.32
2013-12-25,46,41,38,44,35,25,92,79,59,30.48,30.32,31,14,31,0.00
2013-12-26,53,47,43,50,43,39,96,89,72,30.33,30.21,22,9,22,0.05
2013-12-27,50,48,46,42,40,37,83,73,64,30.39,30.28,20,11,22,0.00
2013-12-28,57,49,46,53,42,38,93,79,64,30.39,30.15,12,5,12,0.00
2013-12-29,71,64,54,67,60,52,97,87,75,30.15,29.69,37,9,37,0.40
2013-12-30,54,52,50,52,49,48,95,89,82,30.08,29.88,15,5,15,0.01
2013-12-31,52,49,44,48,43,37,94,82,61,30.34,30.05,23,6,23,0.00